Time;durP1;ratioP1;P1;durP2;ratioP2;P2;SDS_P1;SDS_P2;PMS_P1;PMS_P2;Temp;Humidity;BMP_temperature;BMP_pressure;BME280_temperature;BME280_humidity;BME280_pressure;Samples;Min_cycle;Max_cycle;Signal;HPM_P1;HPM_P2
2024/01/26 00:01:35;;;;;;;7.13;1.98;;;;;;;;;;5860290;28;20041;-78
2024/01/26 00:04:26;;;;;;;3.22;2.45;;;;;;;;;;5861760;28;20065;-78
2024/01/26 00:07:17;;;;;;;1.95;1.05;;;;;;;;;;5860322;28;20055;-77
2024/01/26 00:10:08;;;;;;;2.38;1.08;;;;;;;;;;5863489;28;20132;-77
2024/01/26 00:12:59;;;;;;;1.50;1.35;;;;;;;;;;5848799;28;20056;-78
2024/01/26 00:15:50;;;;;;;0.77;0.77;;;;;;;;;;5864324;28;20049;-78
2024/01/26 00:18:41;;;;;;;1.10;0.98;;;;;;;;;;5864277;28;20063;-77
2024/01/26 00:21:32;;;;;;;3.67;1.00;;;;;;;;;;5865681;28;20119;-77
2024/01/26 00:24:23;;;;;;;0.75;0.75;;;;;;;;;;5864042;28;20076;-77
2024/01/26 00:27:14;;;;;;;1.17;1.10;;;;;;;;;;5864131;28;20045;-77
2024/01/26 00:30:06;;;;;;;1.77;1.08;;;;;;;;;;5865439;28;20057;-77
2024/01/26 00:32:59;;;;;;;2.67;1.83;;;;;;;;;;5865923;28;20041;-77
2024/01/26 00:35:50;;;;;;;1.50;1.40;;;;;;;;;;5856016;28;20469;-77
2024/01/26 00:38:41;;;;;;;1.13;1.02;;;;;;;;;;5847802;28;20051;-77
2024/01/26 00:41:32;;;;;;;0.43;0.43;;;;;;;;;;5863975;28;20048;-77
2024/01/26 00:44:23;;;;;;;1.00;0.98;;;;;;;;;;5863961;28;20042;-77
2024/01/26 00:47:13;;;;;;;1.10;1.00;;;;;;;;;;5863771;28;20049;-77
2024/01/26 00:50:04;;;;;;;6.75;0.60;;;;;;;;;;5864883;28;20041;-77
2024/01/26 00:52:56;;;;;;;1.02;0.45;;;;;;;;;;5864288;28;20052;-77
2024/01/26 00:55:46;;;;;;;2.17;1.40;;;;;;;;;;5865035;28;20041;-77
2024/01/26 00:58:37;;;;;;;1.95;1.05;;;;;;;;;;5864981;28;20045;-77
2024/01/26 01:01:28;;;;;;;1.00;0.80;;;;;;;;;;5842083;28;20045;-77
2024/01/26 01:04:19;;;;;;;0.38;0.38;;;;;;;;;;5854904;28;20507;-77
2024/01/26 01:07:09;;;;;;;17.35;1.25;;;;;;;;;;5879883;28;20049;-77
2024/01/26 01:10:00;;;;;;;0.40;0.40;;;;;;;;;;5864090;28;20048;-77
2024/01/26 01:12:52;;;;;;;0.60;0.60;;;;;;;;;;5879906;28;20046;-77
2024/01/26 01:15:42;;;;;;;2.40;0.82;;;;;;;;;;5863332;28;20045;-77
2024/01/26 01:18:33;;;;;;;2.50;1.02;;;;;;;;;;5863469;28;20510;-77
2024/01/26 01:21:24;;;;;;;1.15;0.43;;;;;;;;;;5864489;28;20419;-77
2024/01/26 01:24:15;;;;;;;0.43;0.43;;;;;;;;;;5862811;28;20050;-77
2024/01/26 01:27:06;;;;;;;1.20;0.60;;;;;;;;;;5863025;28;20426;-77
2024/01/26 01:29:57;;;;;;;0.65;0.60;;;;;;;;;;5880130;28;20396;-77
2024/01/26 01:32:47;;;;;;;0.55;0.55;;;;;;;;;;5863903;28;20052;-77
2024/01/26 01:35:39;;;;;;;2.38;1.33;;;;;;;;;;5879420;28;20124;-77
2024/01/26 01:38:29;;;;;;;0.40;0.40;;;;;;;;;;5879344;28;20051;-77
2024/01/26 01:41:20;;;;;;;1.85;1.35;;;;;;;;;;5862531;28;20064;-77
2024/01/26 01:44:11;;;;;;;1.30;1.23;;;;;;;;;;5862806;28;20045;-77
2024/01/26 01:47:02;;;;;;;0.63;0.47;;;;;;;;;;5862496;28;20049;-78
2024/01/26 01:49:53;;;;;;;0.95;0.88;;;;;;;;;;5863042;28;20049;-77
2024/01/26 01:52:47;;;;;;;1.08;0.82;;;;;;;;;;5862437;28;20045;-77
2024/01/26 01:55:40;;;;;;;0.73;0.73;;;;;;;;;;5862454;28;20048;-77
2024/01/26 01:58:33;;;;;;;1.38;0.55;;;;;;;;;;5862418;28;20049;-77
2024/01/26 02:01:23;;;;;;;0.80;0.80;;;;;;;;;;5862151;28;20055;-77
2024/01/26 02:04:14;;;;;;;1.42;0.68;;;;;;;;;;5878744;28;20124;-77
2024/01/26 02:07:05;;;;;;;1.60;1.33;;;;;;;;;;5862165;28;20055;-78
2024/01/26 02:09:56;;;;;;;9.48;0.70;;;;;;;;;;5864119;28;20045;-77
2024/01/26 02:12:47;;;;;;;3.33;0.85;;;;;;;;;;5845847;28;20060;-77
2024/01/26 02:15:38;;;;;;;1.35;1.13;;;;;;;;;;5862005;28;20045;-77
2024/01/26 02:18:28;;;;;;;4.72;0.88;;;;;;;;;;5863180;28;20092;-77
2024/01/26 02:21:19;;;;;;;1.90;1.67;;;;;;;;;;5863016;28;20077;-77
2024/01/26 02:24:10;;;;;;;0.98;0.73;;;;;;;;;;5863184;28;20042;-78
2024/01/26 02:27:01;;;;;;;0.82;0.82;;;;;;;;;;5863257;28;20848;-78
2024/01/26 02:29:52;;;;;;;1.33;1.23;;;;;;;;;;5878596;28;20094;-77
2024/01/26 02:32:43;;;;;;;1.10;1.00;;;;;;;;;;5877691;28;20115;-77
2024/01/26 02:35:33;;;;;;;1.45;1.15;;;;;;;;;;5863049;28;20041;-77
2024/01/26 02:38:24;;;;;;;1.02;0.85;;;;;;;;;;5862916;28;20053;-78
2024/01/26 02:41:15;;;;;;;0.80;0.80;;;;;;;;;;5861419;28;20049;-78
2024/01/26 02:44:06;;;;;;;1.92;1.08;;;;;;;;;;5863048;28;20052;-78
2024/01/26 02:46:57;;;;;;;1.75;1.13;;;;;;;;;;5863284;28;20049;-78
2024/01/26 02:49:48;;;;;;;1.25;1.02;;;;;;;;;;5822518;28;20046;-78
2024/01/26 02:52:39;;;;;;;1.65;1.00;;;;;;;;;;5854702;28;20558;-78
2024/01/26 02:55:29;;;;;;;0.75;0.75;;;;;;;;;;5854656;28;20045;-78
2024/01/26 02:58:21;;;;;;;1.65;1.13;;;;;;;;;;5838472;28;20058;-78
2024/01/26 03:01:12;;;;;;;1.00;0.65;;;;;;;;;;5837972;28;20053;-78
2024/01/26 03:04:03;;;;;;;2.58;1.38;;;;;;;;;;5839897;28;20045;-78
2024/01/26 03:06:55;;;;;;;2.65;1.00;;;;;;;;;;5854919;28;20053;-77
2024/01/26 03:09:47;;;;;;;1.05;1.00;;;;;;;;;;5839735;28;20499;-77
2024/01/26 03:12:37;;;;;;;1.25;0.85;;;;;;;;;;5839551;28;20520;-78
2024/01/26 03:15:28;;;;;;;0.60;0.60;;;;;;;;;;5838352;28;20049;-78
2024/01/26 03:18:19;;;;;;;1.63;1.52;;;;;;;;;;5837813;28;20054;-78
2024/01/26 03:21:10;;;;;;;0.77;0.77;;;;;;;;;;5839282;28;20048;-78
2024/01/26 03:24:02;;;;;;;0.57;0.43;;;;;;;;;;5838212;28;20522;-78
2024/01/26 03:26:53;;;;;;;1.95;0.82;;;;;;;;;;5838395;28;20046;-77
2024/01/26 03:29:44;;;;;;;3.97;1.33;;;;;;;;;;5837819;28;20419;-77
2024/01/26 03:32:35;;;;;;;0.70;0.60;;;;;;;;;;5837941;28;20064;-78
2024/01/26 03:35:27;;;;;;;0.75;0.75;;;;;;;;;;5837875;28;20045;-78
2024/01/26 03:38:18;;;;;;;0.73;0.73;;;;;;;;;;5838986;28;20054;-78
2024/01/26 03:41:08;;;;;;;1.00;0.90;;;;;;;;;;5837735;28;20073;-78
2024/01/26 03:43:59;;;;;;;1.25;1.10;;;;;;;;;;5838459;28;20596;-78
2024/01/26 03:46:50;;;;;;;0.85;0.73;;;;;;;;;;5856995;28;20041;-78
2024/01/26 03:49:44;;;;;;;1.55;1.20;;;;;;;;;;5866421;28;20059;-78
2024/01/26 03:52:35;;;;;;;0.70;0.63;;;;;;;;;;5865190;28;20144;-78
2024/01/26 03:55:26;;;;;;;1.13;1.02;;;;;;;;;;5865281;28;20038;-78
2024/01/26 03:58:17;;;;;;;1.70;1.42;;;;;;;;;;5865094;28;20037;-78
2024/01/26 04:01:07;;;;;;;2.10;1.90;;;;;;;;;;5864698;28;20132;-78
2024/01/26 04:03:58;;;;;;;1.38;1.27;;;;;;;;;;5866721;28;20049;-77
2024/01/26 04:06:49;;;;;;;1.75;1.27;;;;;;;;;;5866068;28;20045;-78
2024/01/26 04:09:40;;;;;;;1.25;1.10;;;;;;;;;;5881316;28;20088;-78
2024/01/26 04:12:31;;;;;;;1.88;1.60;;;;;;;;;;5865780;28;20041;-78
2024/01/26 04:15:22;;;;;;;4.68;1.90;;;;;;;;;;5864923;28;20068;-78
2024/01/26 04:18:13;;;;;;;4.18;2.70;;;;;;;;;;5864218;28;20053;-78
2024/01/26 04:21:04;;;;;;;3.40;3.10;;;;;;;;;;5831413;28;20056;-78
2024/01/26 04:23:55;;;;;;;0.95;0.95;;;;;;;;;;5858211;28;20050;-77
2024/01/26 04:26:45;;;;;;;3.30;2.95;;;;;;;;;;5841525;28;20042;-78
2024/01/26 04:29:36;;;;;;;5.63;3.30;;;;;;;;;;5841457;28;20064;-78
2024/01/26 04:32:27;;;;;;;3.13;2.55;;;;;;;;;;5841111;28;20042;-78
2024/01/26 04:35:18;;;;;;;3.70;1.88;;;;;;;;;;5842554;28;20532;-78
2024/01/26 04:38:09;;;;;;;5.25;2.92;;;;;;;;;;5841149;28;20046;-78
2024/01/26 04:41:00;;;;;;;1.77;1.67;;;;;;;;;;5841473;28;20053;-78
2024/01/26 04:43:51;;;;;;;4.00;1.73;;;;;;;;;;5865489;28;20053;-78
2024/01/26 04:46:42;;;;;;;0.75;0.75;;;;;;;;;;5865233;28;20045;-77
2024/01/26 04:49:32;;;;;;;3.15;1.63;;;;;;;;;;5865420;28;20045;-77
2024/01/26 04:52:23;;;;;;;4.35;2.30;;;;;;;;;;5863789;28;20431;-78
2024/01/26 04:55:15;;;;;;;9.75;3.17;;;;;;;;;;5863389;28;20054;-78
2024/01/26 04:58:05;;;;;;;4.47;3.42;;;;;;;;;;5865087;28;20053;-78
2024/01/26 05:00:56;;;;;;;5.60;3.60;;;;;;;;;;5832147;28;20437;-77
2024/01/26 05:03:47;;;;;;;3.70;2.30;;;;;;;;;;5841568;28;20038;-78
2024/01/26 05:06:38;;;;;;;1.92;1.23;;;;;;;;;;5840141;28;20046;-77
2024/01/26 05:09:29;;;;;;;0.75;0.70;;;;;;;;;;5841830;28;20139;-77
2024/01/26 05:12:20;;;;;;;6.28;1.58;;;;;;;;;;5824036;28;21165;-77
2024/01/26 05:15:11;;;;;;;4.90;2.00;;;;;;;;;;5824240;28;20392;-78
2024/01/26 05:18:04;;;;;;;1.23;1.05;;;;;;;;;;5824085;28;20049;-78
2024/01/26 05:20:55;;;;;;;1.27;1.17;;;;;;;;;;5840597;28;20045;-77
2024/01/26 05:23:45;;;;;;;0.90;0.90;;;;;;;;;;5841099;28;20157;-77
2024/01/26 05:26:39;;;;;;;2.75;1.67;;;;;;;;;;5841359;28;20369;-77
2024/01/26 05:29:30;;;;;;;4.03;1.88;;;;;;;;;;5840164;28;20061;-77
2024/01/26 05:32:22;;;;;;;4.10;2.15;;;;;;;;;;5839848;28;20528;-78
2024/01/26 05:35:13;;;;;;;0.93;0.85;;;;;;;;;;5839733;28;20046;-77
2024/01/26 05:38:04;;;;;;;1.10;1.00;;;;;;;;;;5840882;28;20104;-78
2024/01/26 05:40:56;;;;;;;7.78;0.85;;;;;;;;;;5840503;28;20045;-77
2024/01/26 05:43:47;;;;;;;1.27;1.17;;;;;;;;;;5855846;28;20116;-77
2024/01/26 05:46:38;;;;;;;0.98;0.90;;;;;;;;;;5839458;28;20065;-77
2024/01/26 05:49:29;;;;;;;2.03;1.55;;;;;;;;;;5839670;28;20129;-78
2024/01/26 05:52:20;;;;;;;5.45;3.65;;;;;;;;;;5823214;28;20419;-78
2024/01/26 05:55:11;;;;;;;2.05;1.52;;;;;;;;;;5855780;28;20464;-78
2024/01/26 05:58:01;;;;;;;1.60;1.50;;;;;;;;;;5839271;28;20049;-78
2024/01/26 06:00:52;;;;;;;5.18;3.15;;;;;;;;;;5839682;28;20045;-77
2024/01/26 06:03:43;;;;;;;4.45;2.78;;;;;;;;;;5839606;28;20045;-77
2024/01/26 06:06:34;;;;;;;5.00;2.00;;;;;;;;;;5838951;28;20124;-77
2024/01/26 06:09:25;;;;;;;1.38;1.27;;;;;;;;;;5838661;28;20492;-77
2024/01/26 06:12:16;;;;;;;1.70;1.60;;;;;;;;;;5838986;28;20049;-78
2024/01/26 06:15:09;;;;;;;2.67;0.85;;;;;;;;;;5855505;28;20057;-78
2024/01/26 06:17:59;;;;;;;0.88;0.82;;;;;;;;;;5839261;28;20096;-77
2024/01/26 06:20:50;;;;;;;1.27;1.17;;;;;;;;;;5861578;28;20045;-78
2024/01/26 06:23:42;;;;;;;3.25;2.55;;;;;;;;;;5823732;28;20504;-78
2024/01/26 06:26:32;;;;;;;3.97;1.33;;;;;;;;;;5854950;28;20076;-77
2024/01/26 06:29:23;;;;;;;4.97;2.53;;;;;;;;;;5855087;28;20054;-77
2024/01/26 06:32:14;;;;;;;1.73;1.45;;;;;;;;;;5838530;28;20048;-77
2024/01/26 06:35:05;;;;;;;2.38;1.95;;;;;;;;;;5838808;28;20050;-78
2024/01/26 06:37:57;;;;;;;3.88;2.17;;;;;;;;;;5839072;28;20042;-78
2024/01/26 06:40:47;;;;;;;2.30;1.55;;;;;;;;;;5838444;28;20042;-77
2024/01/26 06:43:38;;;;;;;5.45;1.92;;;;;;;;;;5838274;28;20041;-77
2024/01/26 06:46:29;;;;;;;1.67;1.35;;;;;;;;;;5838437;28;20061;-77
2024/01/26 06:49:20;;;;;;;1.73;1.35;;;;;;;;;;5839850;28;20056;-78
2024/01/26 06:52:11;;;;;;;2.92;1.98;;;;;;;;;;5838157;28;20471;-78
2024/01/26 06:55:01;;;;;;;4.53;1.48;;;;;;;;;;5838638;28;20049;-78
2024/01/26 06:57:52;;;;;;;1.00;0.82;;;;;;;;;;5839876;28;20042;-78
2024/01/26 07:00:43;;;;;;;2.67;1.63;;;;;;;;;;5838183;28;20057;-77
2024/01/26 07:03:35;;;;;;;4.28;2.13;;;;;;;;;;5838166;28;20125;-77
2024/01/26 07:06:25;;;;;;;7.40;1.98;;;;;;;;;;5854129;28;20041;-78
2024/01/26 07:09:16;;;;;;;3.47;2.30;;;;;;;;;;5854400;28;20042;-77
2024/01/26 07:12:07;;;;;;;10.02;2.45;;;;;;;;;;5854235;28;20129;-77
2024/01/26 07:14:58;;;;;;;3.13;1.88;;;;;;;;;;5822431;28;20143;-77
2024/01/26 07:17:49;;;;;;;1.25;1.15;;;;;;;;;;5821515;28;20130;-77
2024/01/26 07:20:40;;;;;;;2.53;1.85;;;;;;;;;;5842654;28;20388;-78
2024/01/26 07:23:31;;;;;;;5.32;2.80;;;;;;;;;;5842799;28;20054;-78
2024/01/26 07:26:22;;;;;;;2.70;2.25;;;;;;;;;;5843796;28;20050;-78
2024/01/26 07:29:12;;;;;;;2.80;1.40;;;;;;;;;;5842756;28;20050;-78
2024/01/26 07:32:04;;;;;;;2.72;2.25;;;;;;;;;;5842457;28;20924;-78
2024/01/26 07:34:54;;;;;;;5.10;2.38;;;;;;;;;;5859275;28;20073;-77
2024/01/26 07:37:45;;;;;;;1.52;1.42;;;;;;;;;;5842474;28;20042;-78
2024/01/26 07:40:36;;;;;;;2.53;2.33;;;;;;;;;;5842204;28;20061;-78
2024/01/26 07:43:27;;;;;;;2.88;1.50;;;;;;;;;;5842318;28;20042;-78
2024/01/26 07:46:17;;;;;;;5.80;2.53;;;;;;;;;;5843286;28;20145;-78
2024/01/26 07:49:08;;;;;;;6.97;3.22;;;;;;;;;;5843577;28;20495;-78
2024/01/26 07:51:59;;;;;;;1.67;1.58;;;;;;;;;;5843728;28;20128;-77
2024/01/26 07:54:52;;;;;;;6.95;1.65;;;;;;;;;;5842183;28;20045;-78
2024/01/26 07:57:43;;;;;;;2.25;1.45;;;;;;;;;;5841698;28;20045;-77
2024/01/26 08:00:34;;;;;;;3.75;1.83;;;;;;;;;;5842146;28;20042;-78
2024/01/26 08:03:26;;;;;;;7.40;2.92;;;;;;;;;;5841728;28;20050;-77
2024/01/26 08:06:17;;;;;;;7.60;1.98;;;;;;;;;;5825410;28;20070;-78
2024/01/26 08:09:10;;;;;;;2.53;1.33;;;;;;;;;;5842791;28;20048;-78
2024/01/26 08:12:01;;;;;;;0.98;0.93;;;;;;;;;;5842644;28;20046;-78
2024/01/26 08:14:52;;;;;;;1.90;1.77;;;;;;;;;;5840629;28;20414;-77
2024/01/26 08:17:43;;;;;;;1.30;1.08;;;;;;;;;;5864819;28;20172;-77
2024/01/26 08:20:34;;;;;;;1.88;1.48;;;;;;;;;;5841828;28;20527;-77
2024/01/26 08:23:25;;;;;;;6.53;2.20;;;;;;;;;;5846509;28;20049;-78
2024/01/26 08:26:18;;;;;;;2.45;1.55;;;;;;;;;;5855332;28;20426;-77
2024/01/26 08:29:09;;;;;;;8.25;2.35;;;;;;;;;;5842098;28;20120;-77
2024/01/26 08:32:04;;;;;;;4.10;2.90;;;;;;;;;;5818648;28;20050;-77
2024/01/26 08:34:56;;;;;;;3.28;2.38;;;;;;;;;;5852471;28;20065;-77
2024/01/26 08:37:47;;;;;;;0.70;0.70;;;;;;;;;;5863768;28;20053;-77
2024/01/26 08:40:37;;;;;;;3.13;1.92;;;;;;;;;;5866003;28;20049;-77
2024/01/26 08:43:28;;;;;;;3.22;1.70;;;;;;;;;;5847186;28;20530;-78
2024/01/26 08:46:20;;;;;;;1.95;1.80;;;;;;;;;;5853127;28;20058;-77
2024/01/26 08:49:11;;;;;;;2.47;1.27;;;;;;;;;;5842278;28;20125;-77
2024/01/26 08:52:02;;;;;;;2.47;1.98;;;;;;;;;;5841072;28;20065;-78
2024/01/26 08:54:52;;;;;;;17.60;4.30;;;;;;;;;;5841530;28;20052;-77
2024/01/26 08:57:43;;;;;;;6.13;3.15;;;;;;;;;;5862822;28;20049;-78
2024/01/26 09:00:35;;;;;;;5.38;1.65;;;;;;;;;;5863959;28;20038;-78
2024/01/26 09:03:27;;;;;;;4.07;2.53;;;;;;;;;;5864924;28;20068;-77
2024/01/26 09:06:18;;;;;;;4.28;1.30;;;;;;;;;;5863278;28;20055;-77
2024/01/26 09:09:09;;;;;;;1.50;1.40;;;;;;;;;;5863602;28;20052;-77
2024/01/26 09:12:00;;;;;;;2.72;1.90;;;;;;;;;;5848035;28;20053;-77
2024/01/26 09:14:51;;;;;;;2.60;1.60;;;;;;;;;;5855118;28;20054;-77
2024/01/26 09:17:41;;;;;;;0.65;0.65;;;;;;;;;;5871867;28;20118;-78
2024/01/26 09:20:32;;;;;;;1.33;1.02;;;;;;;;;;5842805;28;20046;-78
2024/01/26 09:23:23;;;;;;;3.65;2.63;;;;;;;;;;5840011;28;20124;-77
2024/01/26 09:26:14;;;;;;;0.85;0.85;;;;;;;;;;5823754;28;20125;-78
2024/01/26 09:29:06;;;;;;;9.13;2.80;;;;;;;;;;5856534;28;20163;-77
2024/01/26 09:31:59;;;;;;;6.65;2.80;;;;;;;;;;5847676;28;20407;-77
2024/01/26 09:34:49;;;;;;;6.88;3.15;;;;;;;;;;5845370;28;20406;-78
2024/01/26 09:37:40;;;;;;;2.78;2.05;;;;;;;;;;5863938;28;20045;-77
2024/01/26 09:40:31;;;;;;;1.50;1.40;;;;;;;;;;5846633;28;20049;-77
2024/01/26 09:43:23;;;;;;;2.25;1.95;;;;;;;;;;5855584;28;20550;-77
2024/01/26 09:46:14;;;;;;;3.60;1.92;;;;;;;;;;5862095;28;20076;-77
2024/01/26 09:49:09;;;;;;;1.65;1.38;;;;;;;;;;5862368;28;20049;-77
2024/01/26 09:51:59;;;;;;;15.93;2.13;;;;;;;;;;5862970;28;20064;-77
2024/01/26 09:54:52;;;;;;;1.35;1.25;;;;;;;;;;5862620;28;20135;-77
2024/01/26 09:57:47;;;;;;;1.63;1.38;;;;;;;;;;5880073;28;20517;-77
2024/01/26 10:00:39;;;;;;;5.90;2.55;;;;;;;;;;5862965;28;20132;-77
2024/01/26 10:03:29;;;;;;;6.82;3.28;;;;;;;;;;5861185;28;20047;-77
2024/01/26 10:06:25;;;;;;;3.45;1.90;;;;;;;;;;5842712;28;20057;-77
2024/01/26 10:09:17;;;;;;;8.85;2.65;;;;;;;;;;5838874;28;20504;-77
2024/01/26 10:12:10;;;;;;;2.50;2.00;;;;;;;;;;5839318;28;20423;-77
2024/01/26 10:15:07;;;;;;;2.53;1.52;;;;;;;;;;5846467;28;20049;-77
2024/01/26 10:18:00;;;;;;;4.57;2.63;;;;;;;;;;5861370;28;20045;-77
2024/01/26 10:20:51;;;;;;;7.70;3.92;;;;;;;;;;5861233;28;20045;-77
2024/01/26 10:23:43;;;;;;;3.15;2.33;;;;;;;;;;5863200;28;20541;-77
2024/01/26 10:26:34;;;;;;;1.92;1.42;;;;;;;;;;5841215;28;20045;-77
2024/01/26 10:29:25;;;;;;;1.80;1.58;;;;;;;;;;5838357;28;20500;-77
2024/01/26 10:32:16;;;;;;;3.00;1.77;;;;;;;;;;5840127;28;20128;-77
2024/01/26 10:35:08;;;;;;;3.78;2.22;;;;;;;;;;5830252;28;20125;-77
2024/01/26 10:38:00;;;;;;;4.55;2.25;;;;;;;;;;5842687;28;20041;-77
2024/01/26 10:41:00;;;;;;;7.40;1.85;;;;;;;;;;5854262;28;20049;-77
2024/01/26 10:43:55;;;;;;;4.85;1.15;;;;;;;;;;5853889;28;20057;-77
2024/01/26 10:46:46;;;;;;;0.77;0.73;;;;;;;;;;5831287;28;20419;-77
2024/01/26 10:49:37;;;;;;;2.17;1.98;;;;;;;;;;5836052;28;20495;-76
2024/01/26 10:52:30;;;;;;;1.40;1.30;;;;;;;;;;5860554;28;20049;-77
2024/01/26 10:55:21;;;;;;;0.80;0.73;;;;;;;;;;5860919;28;20053;-77
2024/01/26 10:58:12;;;;;;;3.63;1.02;;;;;;;;;;5861022;28;20048;-77
2024/01/26 11:01:05;;;;;;;2.13;1.48;;;;;;;;;;5844979;28;20054;-77
2024/01/26 11:03:56;;;;;;;2.53;1.65;;;;;;;;;;5845503;28;20123;-77
2024/01/26 11:06:48;;;;;;;1.27;1.17;;;;;;;;;;5860744;28;20061;-77
2024/01/26 11:09:42;;;;;;;7.80;2.38;;;;;;;;;;5862344;28;20176;-77
2024/01/26 11:12:37;;;;;;;4.35;2.10;;;;;;;;;;5862340;28;20045;-77
2024/01/26 11:15:29;;;;;;;1.20;1.10;;;;;;;;;;5844116;28;20118;-77
2024/01/26 11:18:25;;;;;;;4.28;1.60;;;;;;;;;;5844619;28;20056;-77
2024/01/26 11:21:19;;;;;;;3.92;3.47;;;;;;;;;;5860755;28;20176;-77
2024/01/26 11:24:18;;;;;;;7.25;4.57;;;;;;;;;;5844824;28;20045;-77
2024/01/26 11:27:10;;;;;;;4.32;3.17;;;;;;;;;;5862095;28;20045;-77
2024/01/26 11:30:01;;;;;;;5.38;3.17;;;;;;;;;;5861101;28;20174;-77
2024/01/26 11:32:52;;;;;;;5.07;3.28;;;;;;;;;;5862480;28;20049;-77
2024/01/26 11:35:43;;;;;;;2.85;1.98;;;;;;;;;;5844280;28;20494;-77
2024/01/26 11:38:34;;;;;;;3.65;2.58;;;;;;;;;;5862211;28;20037;-77
2024/01/26 11:41:25;;;;;;;1.90;1.73;;;;;;;;;;5860570;28;20132;-77
2024/01/26 11:44:20;;;;;;;1.83;1.70;;;;;;;;;;5860527;28;20049;-77
2024/01/26 11:47:11;;;;;;;2.42;1.63;;;;;;;;;;5860582;28;20049;-77
2024/01/26 11:50:03;;;;;;;1.45;1.25;;;;;;;;;;5860563;28;20508;-77
2024/01/26 11:52:54;;;;;;;3.15;2.85;;;;;;;;;;5860850;28;20053;-78
2024/01/26 11:55:45;;;;;;;3.17;1.80;;;;;;;;;;5860617;28;20048;-77
2024/01/26 11:58:39;;;;;;;4.55;2.60;;;;;;;;;;5860520;28;20495;-77
2024/01/26 12:01:31;;;;;;;3.90;1.92;;;;;;;;;;5860279;28;20049;-77
2024/01/26 12:04:23;;;;;;;4.97;2.38;;;;;;;;;;5860642;28;20516;-77
2024/01/26 12:07:15;;;;;;;3.63;2.50;;;;;;;;;;5847455;28;20050;-78
2024/01/26 12:10:08;;;;;;;2.35;1.63;;;;;;;;;;5865968;28;20056;-77
2024/01/26 12:13:01;;;;;;;19.05;3.97;;;;;;;;;;5865366;28;20080;-77
2024/01/26 12:15:51;;;;;;;1.73;1.17;;;;;;;;;;5864659;28;20053;-77
2024/01/26 12:18:46;;;;;;;2.75;1.98;;;;;;;;;;5864441;28;20045;-77
2024/01/26 12:21:37;;;;;;;2.15;1.77;;;;;;;;;;5864775;28;20107;-77
2024/01/26 12:24:28;;;;;;;2.78;1.00;;;;;;;;;;5865600;28;20068;-77
2024/01/26 12:27:19;;;;;;;2.58;1.33;;;;;;;;;;5865503;28;20057;-77
2024/01/26 12:30:11;;;;;;;1.60;1.17;;;;;;;;;;5847954;28;20049;-77
2024/01/26 12:33:10;;;;;;;2.28;1.40;;;;;;;;;;5865710;28;20056;-77
2024/01/26 12:36:01;;;;;;;1.10;1.10;;;;;;;;;;5865546;28;20049;-77
2024/01/26 12:38:51;;;;;;;1.55;1.45;;;;;;;;;;5865783;28;20045;-77
2024/01/26 12:41:42;;;;;;;4.03;1.85;;;;;;;;;;5847638;28;20603;-77
2024/01/26 12:44:33;;;;;;;1.00;0.95;;;;;;;;;;5863809;28;20041;-77
2024/01/26 12:47:24;;;;;;;2.25;1.25;;;;;;;;;;5847521;28;20059;-77
2024/01/26 12:50:16;;;;;;;4.20;1.42;;;;;;;;;;5865057;28;20131;-77
2024/01/26 12:53:08;;;;;;;4.45;1.70;;;;;;;;;;5863663;28;20072;-77
2024/01/26 12:55:59;;;;;;;1.13;1.05;;;;;;;;;;5864371;28;20045;-77
2024/01/26 12:58:50;;;;;;;4.53;1.67;;;;;;;;;;5857134;28;20041;-77
2024/01/26 13:01:42;;;;;;;1.40;1.30;;;;;;;;;;5864918;28;20041;-77
2024/01/26 13:04:32;;;;;;;1.08;0.98;;;;;;;;;;5863655;28;20511;-77
2024/01/26 13:07:23;;;;;;;1.38;1.27;;;;;;;;;;5864581;28;20049;-77
2024/01/26 13:10:14;;;;;;;6.32;2.35;;;;;;;;;;5863227;28;20099;-77
2024/01/26 13:13:05;;;;;;;4.95;3.35;;;;;;;;;;5864870;28;20056;-77
2024/01/26 13:15:56;;;;;;;5.28;3.60;;;;;;;;;;5863493;28;20499;-77
2024/01/26 13:18:47;;;;;;;3.17;2.80;;;;;;;;;;5846719;28;20049;-77
2024/01/26 13:21:38;;;;;;;3.25;1.90;;;;;;;;;;5846730;28;20126;-77
2024/01/26 13:24:35;;;;;;;4.40;3.58;;;;;;;;;;5864485;28;20124;-82
2024/01/26 13:27:25;;;;;;;10.13;7.30;;;;;;;;;;5863411;28;20057;-78
2024/01/26 13:30:17;;;;;;;4.40;3.28;;;;;;;;;;5862907;28;20041;-78
2024/01/26 13:33:08;;;;;;;7.10;6.20;;;;;;;;;;5862809;28;20080;-77
2024/01/26 13:36:01;;;;;;;7.65;5.03;;;;;;;;;;5863193;28;20057;-77
2024/01/26 13:38:52;;;;;;;7.45;4.50;;;;;;;;;;5855269;28;20420;-78
2024/01/26 13:41:43;;;;;;;8.00;4.85;;;;;;;;;;5862600;28;20175;-77
2024/01/26 13:44:34;;;;;;;8.70;3.58;;;;;;;;;;5862615;28;20057;-77
2024/01/26 13:47:26;;;;;;;5.60;3.72;;;;;;;;;;5862378;28;20053;-77
2024/01/26 13:50:17;;;;;;;10.80;5.15;;;;;;;;;;5862049;28;20136;-77
2024/01/26 13:53:08;;;;;;;18.25;7.32;;;;;;;;;;5862713;28;20045;-77
2024/01/26 13:56:00;;;;;;;9.77;4.47;;;;;;;;;;5862675;28;20049;-77
2024/01/26 13:58:51;;;;;;;5.57;4.85;;;;;;;;;;5864017;28;20041;-77
2024/01/26 14:01:41;;;;;;;5.68;2.65;;;;;;;;;;5863418;28;20041;-77
2024/01/26 14:04:32;;;;;;;22.02;6.25;;;;;;;;;;5862127;28;20052;-77
2024/01/26 14:07:23;;;;;;;6.43;5.10;;;;;;;;;;5842416;28;20107;-77
2024/01/26 14:10:14;;;;;;;7.95;4.88;;;;;;;;;;5861918;28;20069;-77
2024/01/26 14:13:07;;;;;;;7.60;4.20;;;;;;;;;;5863286;28;20045;-77
2024/01/26 14:15:59;;;;;;;6.15;4.45;;;;;;;;;;5862536;28;20132;-78
2024/01/26 14:18:50;;;;;;;5.65;3.72;;;;;;;;;;5845583;28;20411;-78
2024/01/26 14:21:44;;;;;;;2.53;2.28;;;;;;;;;;5862956;28;20128;-78
2024/01/26 14:24:35;;;;;;;7.82;4.13;;;;;;;;;;5861862;28;20056;-78
2024/01/26 14:27:26;;;;;;;9.18;6.10;;;;;;;;;;5861452;28;20060;-78
2024/01/26 14:30:18;;;;;;;10.15;5.00;;;;;;;;;;5844778;28;20053;-78
2024/01/26 14:33:09;;;;;;;9.90;4.85;;;;;;;;;;5862991;28;20041;-78
2024/01/26 14:36:00;;;;;;;2.28;2.13;;;;;;;;;;5862063;28;20409;-78
2024/01/26 14:38:51;;;;;;;11.30;7.13;;;;;;;;;;5861696;28;20124;-78
2024/01/26 14:41:42;;;;;;;11.63;5.72;;;;;;;;;;5862601;28;20037;-78
2024/01/26 14:44:35;;;;;;;15.68;7.45;;;;;;;;;;5861252;28;20105;-78
2024/01/26 14:47:26;;;;;;;8.80;4.68;;;;;;;;;;5861324;28;20052;-78
2024/01/26 14:50:16;;;;;;;12.65;4.28;;;;;;;;;;5861336;28;20046;-78
2024/01/26 14:53:09;;;;;;;6.45;2.72;;;;;;;;;;5861010;28;20072;-78
2024/01/26 14:56:00;;;;;;;6.97;2.70;;;;;;;;;;5845585;28;20044;-78
2024/01/26 14:58:51;;;;;;;5.47;2.88;;;;;;;;;;5861413;28;20045;-78
2024/01/26 15:01:41;;;;;;;6.97;5.60;;;;;;;;;;5861017;28;20416;-78
2024/01/26 15:04:32;;;;;;;15.77;11.35;;;;;;;;;;5845022;28;20045;-78
2024/01/26 15:07:23;;;;;;;14.90;8.82;;;;;;;;;;5862357;28;20049;-78
2024/01/26 15:10:14;;;;;;;13.65;7.60;;;;;;;;;;5860959;28;20045;-78
2024/01/26 15:13:05;;;;;;;9.15;5.88;;;;;;;;;;5844394;28;20053;-78
2024/01/26 15:15:55;;;;;;;6.95;4.00;;;;;;;;;;5861466;28;20045;-78
2024/01/26 15:18:46;;;;;;;3.42;2.83;;;;;;;;;;5860834;28;20053;-78
2024/01/26 15:21:41;;;;;;;1.95;1.80;;;;;;;;;;5844695;28;20049;-78
2024/01/26 15:24:32;;;;;;;3.67;1.73;;;;;;;;;;5862468;28;20107;-78
2024/01/26 15:27:24;;;;;;;4.07;2.78;;;;;;;;;;5860780;28;20392;-78
2024/01/26 15:30:15;;;;;;;1.85;1.50;;;;;;;;;;5861992;28;20047;-78
2024/01/26 15:33:08;;;;;;;3.92;1.88;;;;;;;;;;5844496;28;20084;-78
2024/01/26 15:35:58;;;;;;;2.20;2.00;;;;;;;;;;5861292;28;20046;-78
2024/01/26 15:38:49;;;;;;;2.55;2.08;;;;;;;;;;5860555;28;20042;-77
2024/01/26 15:41:40;;;;;;;2.25;1.20;;;;;;;;;;5865210;28;20049;-77
2024/01/26 15:44:33;;;;;;;3.78;3.28;;;;;;;;;;5849070;28;20050;-78
2024/01/26 15:47:24;;;;;;;2.92;2.50;;;;;;;;;;5865319;28;20419;-78
2024/01/26 15:50:14;;;;;;;5.18;2.92;;;;;;;;;;5848901;28;20049;-78
2024/01/26 15:53:05;;;;;;;3.50;2.35;;;;;;;;;;5848551;28;20064;-78
2024/01/26 15:55:56;;;;;;;2.70;2.42;;;;;;;;;;5865705;28;20052;-78
2024/01/26 15:58:47;;;;;;;1.27;1.17;;;;;;;;;;5866160;28;20049;-78
2024/01/26 16:01:37;;;;;;;3.47;1.42;;;;;;;;;;5864798;28;20049;-78
2024/01/26 16:04:28;;;;;;;1.60;1.50;;;;;;;;;;5864986;28;20515;-78
2024/01/26 16:07:19;;;;;;;2.65;1.63;;;;;;;;;;5848113;28;20049;-78
2024/01/26 16:10:10;;;;;;;6.55;2.60;;;;;;;;;;5848425;28;20061;-78
2024/01/26 16:13:01;;;;;;;3.63;1.65;;;;;;;;;;5848239;28;20099;-78
2024/01/26 16:15:52;;;;;;;1.75;1.65;;;;;;;;;;5866446;28;20048;-78
2024/01/26 16:18:44;;;;;;;3.67;2.30;;;;;;;;;;5864268;28;20407;-78
2024/01/26 16:21:36;;;;;;;4.30;3.38;;;;;;;;;;5864432;28;20045;-78
2024/01/26 16:24:26;;;;;;;9.55;3.63;;;;;;;;;;5864293;28;20042;-78
2024/01/26 16:27:17;;;;;;;2.63;2.42;;;;;;;;;;5847873;28;20045;-78
2024/01/26 16:30:10;;;;;;;11.52;3.22;;;;;;;;;;5864309;28;20049;-78
2024/01/26 16:33:01;;;;;;;2.03;1.75;;;;;;;;;;5865693;28;20559;-78
2024/01/26 16:35:52;;;;;;;2.10;1.33;;;;;;;;;;5864406;28;20056;-78
2024/01/26 16:38:43;;;;;;;2.10;1.90;;;;;;;;;;5864109;28;20080;-78
2024/01/26 16:41:44;;;;;;;2.08;1.50;;;;;;;;;;5847721;28;20077;-78
2024/01/26 16:44:34;;;;;;;4.20;2.65;;;;;;;;;;5864230;28;20041;-78
2024/01/26 16:47:25;;;;;;;5.20;2.90;;;;;;;;;;5863997;28;20124;-78
2024/01/26 16:50:16;;;;;;;2.42;1.55;;;;;;;;;;5865063;28;20073;-78
2024/01/26 16:53:07;;;;;;;4.22;2.88;;;;;;;;;;5846732;28;20129;-78
2024/01/26 16:55:58;;;;;;;6.68;3.28;;;;;;;;;;5848207;28;20053;-78
2024/01/26 16:58:48;;;;;;;5.05;2.58;;;;;;;;;;5864837;28;20044;-78
2024/01/26 17:01:39;;;;;;;4.05;3.25;;;;;;;;;;5863492;28;20041;-78
2024/01/26 17:04:30;;;;;;;4.75;2.30;;;;;;;;;;5864931;28;20053;-78
2024/01/26 17:07:21;;;;;;;5.18;3.80;;;;;;;;;;5863478;28;20053;-78